Time;durP1;ratioP1;P1;durP2;ratioP2;P2;SDS_P1;SDS_P2;PMS_P1;PMS_P2;Temp;Humidity;BMP_temperature;BMP_pressure;BME280_temperature;BME280_humidity;BME280_pressure;Samples;Min_cycle;Max_cycle;Signal;HPM_P1;HPM_P2
2021/08/20 00:00:39;;;;;;;7.30;4.93;;;16.40;99.90;;;;;;5074668;28;20190;-74
2021/08/20 00:03:07;;;;;;;5.30;4.80;;;16.40;99.90;;;;;;5081535;28;20184;-74
2021/08/20 00:05:36;;;;;;;5.83;4.50;;;16.40;99.90;;;;;;5078713;28;20193;-74
2021/08/20 00:08:05;;;;;;;5.17;4.47;;;16.40;99.90;;;;;;5075979;28;20197;-74
2021/08/20 00:10:33;;;;;;;4.87;4.50;;;16.40;99.90;;;;;;5077243;28;20177;-74
2021/08/20 00:13:02;;;;;;;5.30;4.80;;;16.40;99.90;;;;;;5075966;28;20203;-74
2021/08/20 00:15:31;;;;;;;6.13;4.87;;;16.40;99.90;;;;;;5077300;28;20784;-74
2021/08/20 00:18:01;;;;;;;5.30;4.90;;;16.40;99.90;;;;;;5074983;28;20207;-74
2021/08/20 00:20:29;;;;;;;4.90;4.47;;;16.40;99.90;;;;;;5075684;28;20191;-74
2021/08/20 00:22:57;;;;;;;7.33;4.80;;;16.40;99.90;;;;;;5078276;28;20180;-74
2021/08/20 00:25:25;;;;;;;7.73;4.60;;;16.40;99.90;;;;;;5076847;28;20181;-74
2021/08/20 00:27:54;;;;;;;6.57;5.07;;;16.40;99.90;;;;;;5075880;28;20183;-74
2021/08/20 00:30:22;;;;;;;5.27;4.47;;;16.40;99.90;;;;;;5077816;28;20188;-73
2021/08/20 00:32:51;;;;;;;5.00;4.60;;;16.40;99.90;;;;;;5037059;28;20199;-74
2021/08/20 00:35:21;;;;;;;5.43;4.93;;;16.40;99.90;;;;;;5035658;28;20235;-73
2021/08/20 00:37:52;;;;;;;5.07;4.63;;;16.40;99.90;;;;;;5034517;28;20199;-74
2021/08/20 00:40:20;;;;;;;5.20;4.70;;;16.40;99.90;;;;;;5035219;28;20413;-74
2021/08/20 00:42:50;;;;;;;4.90;4.37;;;16.40;99.90;;;;;;5034422;28;20309;-74
2021/08/20 00:45:19;;;;;;;5.13;4.73;;;16.40;99.90;;;;;;5042629;28;20223;-74
2021/08/20 00:47:47;;;;;;;7.70;4.73;;;16.40;99.90;;;;;;5033613;28;20186;-74
2021/08/20 00:50:15;;;;;;;5.57;5.03;;;16.40;99.90;;;;;;5040161;28;20357;-73
2021/08/20 00:52:45;;;;;;;7.23;4.77;;;16.40;99.90;;;;;;5035027;28;20186;-74
2021/08/20 00:55:15;;;;;;;5.87;5.13;;;16.40;99.90;;;;;;5040276;28;20251;-73
2021/08/20 00:57:47;;;;;;;5.43;4.93;;;16.50;99.90;;;;;;5033788;28;20222;-73
2021/08/20 01:00:17;;;;;;;11.13;5.53;;;16.50;99.90;;;;;;5036073;28;20258;-73
2021/08/20 01:02:45;;;;;;;6.23;5.30;;;16.40;99.90;;;;;;5036582;28;20186;-74
2021/08/20 01:05:14;;;;;;;5.47;4.80;;;16.40;99.90;;;;;;5038343;28;20392;-73
2021/08/20 01:07:42;;;;;;;7.40;5.20;;;16.30;99.90;;;;;;5035087;28;20190;-74
2021/08/20 01:10:13;;;;;;;6.43;4.83;;;16.30;99.90;;;;;;5037250;28;20178;-74
2021/08/20 01:12:41;;;;;;;7.23;5.60;;;16.30;99.90;;;;;;5033614;28;20190;-74
2021/08/20 01:15:11;;;;;;;7.27;5.50;;;16.30;99.90;;;;;;5051714;28;20183;-74
2021/08/20 01:17:39;;;;;;;6.60;5.40;;;16.30;99.90;;;;;;5035622;28;20205;-74
2021/08/20 01:20:11;;;;;;;5.70;5.10;;;16.40;99.90;;;;;;5036063;28;20200;-74
2021/08/20 01:22:40;;;;;;;6.73;5.43;;;16.40;99.90;;;;;;5037502;28;20198;-73
2021/08/20 01:25:10;;;;;;;5.83;5.33;;;16.40;99.90;;;;;;5055216;28;20366;-74
2021/08/20 01:27:38;;;;;;;5.70;4.90;;;16.40;99.90;;;;;;5040268;28;20180;-74
2021/08/20 01:30:08;;;;;;;5.90;5.33;;;16.40;99.90;;;;;;5036778;28;20191;-74
2021/08/20 01:32:37;;;;;;;6.00;5.40;;;16.40;99.90;;;;;;5071237;28;20457;-72
2021/08/20 01:35:06;;;;;;;5.43;4.90;;;16.30;99.90;;;;;;5074557;28;20391;-74
2021/08/20 01:37:34;;;;;;;7.57;6.00;;;16.30;99.90;;;;;;5073072;28;20696;-74
2021/08/20 01:40:03;;;;;;;5.97;5.27;;;16.20;99.90;;;;;;5078505;28;20204;-74
2021/08/20 01:42:33;;;;;;;8.53;5.83;;;16.20;99.90;;;;;;5077290;28;20180;-74
2021/08/20 01:45:01;;;;;;;11.93;6.57;;;16.20;99.90;;;;;;5077442;28;20180;-73
2021/08/20 01:47:29;;;;;;;8.73;6.33;;;16.20;99.90;;;;;;5073205;28;20308;-74
2021/08/20 01:49:58;;;;;;;8.67;6.50;;;16.20;99.90;;;;;;5072252;28;20211;-73
2021/08/20 01:52:26;;;;;;;8.77;6.27;;;16.20;99.90;;;;;;5075527;28;20426;-74
2021/08/20 01:54:55;;;;;;;9.70;6.50;;;16.20;99.90;;;;;;5078415;28;20234;-74
2021/08/20 01:57:23;;;;;;;10.03;6.83;;;16.20;99.90;;;;;;5076240;28;20188;-73
2021/08/20 01:59:53;;;;;;;12.90;7.03;;;16.20;99.90;;;;;;5079149;28;20227;-74
2021/08/20 02:02:21;;;;;;;11.17;7.23;;;16.20;99.90;;;;;;5077723;28;20172;-73
2021/08/20 02:04:50;;;;;;;12.70;8.20;;;16.20;99.90;;;;;;5072896;28;20455;-72
2021/08/20 02:07:18;;;;;;;11.33;7.10;;;16.30;99.90;;;;;;5079209;28;20180;-73
2021/08/20 02:09:47;;;;;;;11.53;7.23;;;16.30;99.90;;;;;;5076957;28;20181;-73
2021/08/20 02:12:16;;;;;;;12.50;6.63;;;16.30;99.90;;;;;;5074123;28;20191;-74
2021/08/20 02:14:53;;;;;;;11.80;7.13;;;16.30;99.90;;;;;;5077992;28;20191;-73
2021/08/20 02:17:21;;;;;;;10.60;6.70;;;16.30;99.90;;;;;;5074842;28;20473;-72
2021/08/20 02:19:50;;;;;;;10.20;6.83;;;16.30;99.90;;;;;;5074804;28;20296;-73
2021/08/20 02:22:18;;;;;;;10.10;7.20;;;16.30;99.90;;;;;;5076566;28;20388;-74
2021/08/20 02:24:46;;;;;;;9.97;6.80;;;16.40;99.90;;;;;;5075945;28;20181;-74
2021/08/20 02:27:15;;;;;;;12.60;6.90;;;16.40;99.90;;;;;;5075134;28;20193;-74
2021/08/20 02:29:43;;;;;;;6.57;5.90;;;16.40;99.90;;;;;;5073719;28;20192;-72
2021/08/20 02:32:12;;;;;;;7.37;6.50;;;16.40;99.90;;;;;;5091713;28;20240;-74
2021/08/20 02:34:41;;;;;;;7.10;6.50;;;16.40;99.90;;;;;;5078074;28;20625;-72
2021/08/20 02:37:09;;;;;;;7.17;6.10;;;16.50;99.90;;;;;;5079303;28;20189;-74
2021/08/20 02:39:37;;;;;;;6.70;6.00;;;16.50;99.90;;;;;;5080692;28;20230;-74
2021/08/20 02:42:06;;;;;;;9.67;6.20;;;16.50;99.90;;;;;;5073450;28;21522;-74
2021/08/20 02:44:34;;;;;;;6.90;6.20;;;16.50;99.90;;;;;;5075787;28;20186;-73
2021/08/20 02:47:03;;;;;;;7.60;6.27;;;16.50;99.90;;;;;;5078472;28;20180;-72
2021/08/20 02:49:32;;;;;;;7.87;6.20;;;16.60;99.90;;;;;;5077426;28;20446;-74
2021/08/20 02:52:00;;;;;;;7.57;6.33;;;16.60;99.90;;;;;;5077975;28;20192;-73
2021/08/20 02:54:29;;;;;;;8.20;6.70;;;16.60;99.90;;;;;;5079513;28;20196;-74
2021/08/20 02:56:57;;;;;;;7.20;6.50;;;16.60;99.90;;;;;;5081677;28;20192;-74
2021/08/20 02:59:25;;;;;;;7.83;6.57;;;16.60;99.90;;;;;;5084231;28;20324;-74
2021/08/20 03:01:53;;;;;;;10.70;7.40;;;16.50;99.90;;;;;;5080455;28;20187;-75
2021/08/20 03:04:22;;;;;;;10.27;7.10;;;16.50;99.90;;;;;;5080841;28;20181;-73
2021/08/20 03:06:52;;;;;;;9.57;6.77;;;16.50;99.90;;;;;;5075437;28;20176;-74
2021/08/20 03:09:20;;;;;;;10.37;6.93;;;16.50;99.90;;;;;;5085749;28;20180;-75
2021/08/20 03:11:49;;;;;;;7.60;6.57;;;16.50;99.90;;;;;;5077699;28;20193;-75
2021/08/20 03:14:18;;;;;;;7.30;6.60;;;16.50;99.90;;;;;;5079556;28;20196;-75
2021/08/20 03:16:46;;;;;;;9.03;5.93;;;16.50;99.90;;;;;;5079830;28;20185;-75
2021/08/20 03:19:14;;;;;;;7.27;6.57;;;16.50;99.90;;;;;;5079595;28;20212;-75
2021/08/20 03:21:42;;;;;;;7.17;6.47;;;16.50;99.90;;;;;;5075766;28;20408;-75
2021/08/20 03:24:12;;;;;;;7.37;6.50;;;16.50;99.90;;;;;;5089860;28;20202;-75
2021/08/20 03:26:40;;;;;;;8.20;6.57;;;16.50;99.90;;;;;;5077776;28;20181;-75
2021/08/20 03:29:09;;;;;;;8.67;6.93;;;16.50;99.90;;;;;;5081589;28;20198;-74
2021/08/20 03:31:37;;;;;;;7.60;6.90;;;16.50;99.90;;;;;;5070841;28;20228;-75
2021/08/20 03:34:06;;;;;;;11.13;6.63;;;16.50;99.90;;;;;;5078009;28;21620;-75
2021/08/20 03:36:35;;;;;;;8.27;6.70;;;16.50;99.90;;;;;;5079651;28;20194;-76
2021/08/20 03:39:03;;;;;;;9.37;7.03;;;16.60;99.90;;;;;;5079732;28;20298;-75
2021/08/20 03:41:33;;;;;;;8.13;6.77;;;16.60;99.90;;;;;;5080653;28;20188;-74
2021/08/20 03:44:01;;;;;;;8.50;7.40;;;16.50;99.90;;;;;;5077979;28;20201;-75
2021/08/20 03:46:29;;;;;;;7.93;6.90;;;16.50;99.90;;;;;;5078833;28;20208;-75
2021/08/20 03:48:58;;;;;;;8.83;7.70;;;16.50;99.90;;;;;;5078778;28;20341;-76
2021/08/20 03:51:26;;;;;;;7.83;7.03;;;16.40;99.90;;;;;;5077829;28;20187;-75
2021/08/20 03:53:54;;;;;;;8.60;7.30;;;16.50;99.90;;;;;;5084778;28;20251;-75
2021/08/20 03:56:23;;;;;;;8.87;7.10;;;16.50;99.90;;;;;;5078730;28;20192;-75
2021/08/20 03:58:53;;;;;;;8.23;7.37;;;16.50;99.90;;;;;;5077134;28;20181;-75
2021/08/20 04:01:21;;;;;;;12.93;8.00;;;16.40;99.90;;;;;;5079258;28;20204;-75
2021/08/20 04:03:50;;;;;;;8.27;7.07;;;16.40;99.90;;;;;;5078186;28;20240;-76
2021/08/20 04:06:18;;;;;;;9.63;8.07;;;16.40;99.90;;;;;;5078633;28;20180;-76
2021/08/20 04:08:46;;;;;;;9.43;7.50;;;16.40;99.90;;;;;;5081393;28;20195;-76
2021/08/20 04:11:15;;;;;;;8.57;7.30;;;16.40;99.90;;;;;;5084032;28;20182;-74
2021/08/20 04:14:11;;;;;;;10.67;8.37;;;16.40;99.90;;;;;;5075965;28;20200;-73
2021/08/20 04:16:40;;;;;;;10.20;7.93;;;16.40;99.90;;;;;;5080768;28;20185;-75
2021/08/20 04:19:08;;;;;;;9.87;7.47;;;16.40;99.90;;;;;;5074908;28;20185;-76
2021/08/20 04:21:38;;;;;;;9.97;8.17;;;16.40;99.90;;;;;;5075319;28;20205;-76
2021/08/20 04:24:09;;;;;;;9.20;8.20;;;16.50;99.90;;;;;;5079537;28;20196;-76
2021/08/20 04:26:37;;;;;;;8.53;7.63;;;16.40;99.90;;;;;;5077691;28;20227;-76
2021/08/20 04:29:05;;;;;;;12.57;8.07;;;16.40;99.90;;;;;;5082779;28;20173;-76
2021/08/20 04:31:35;;;;;;;10.07;7.80;;;16.40;99.90;;;;;;5080178;28;20288;-77
2021/08/20 04:34:03;;;;;;;14.30;8.73;;;16.50;99.90;;;;;;5079373;28;20205;-76
2021/08/20 04:36:31;;;;;;;10.73;8.70;;;16.50;99.90;;;;;;5080871;28;20185;-76
2021/08/20 04:39:00;;;;;;;10.80;8.13;;;16.50;99.90;;;;;;5079785;28;20274;-76
2021/08/20 04:41:28;;;;;;;9.60;8.30;;;16.50;99.90;;;;;;5075812;28;20284;-75
2021/08/20 04:43:57;;;;;;;10.50;8.23;;;16.50;99.90;;;;;;5077269;28;20329;-76
2021/08/20 04:46:25;;;;;;;9.03;7.90;;;16.50;99.90;;;;;;5096010;28;20231;-74
2021/08/20 04:48:55;;;;;;;11.43;8.83;;;16.50;99.90;;;;;;5078311;28;21324;-73
2021/08/20 04:51:23;;;;;;;11.40;8.57;;;16.50;99.90;;;;;;5077122;28;20352;-75
2021/08/20 04:53:51;;;;;;;10.73;8.17;;;16.40;99.90;;;;;;5083344;28;20218;-76
2021/08/20 04:56:20;;;;;;;9.00;7.90;;;16.50;99.90;;;;;;5077907;28;20423;-76
2021/08/20 04:58:48;;;;;;;13.83;8.53;;;16.50;99.90;;;;;;5078884;28;20192;-73
2021/08/20 05:01:17;;;;;;;9.90;7.60;;;16.50;99.90;;;;;;5076609;28;20207;-75
2021/08/20 05:03:45;;;;;;;9.13;8.23;;;16.50;99.90;;;;;;5092806;28;20214;-74
2021/08/20 05:06:15;;;;;;;8.87;7.87;;;16.50;99.90;;;;;;5078304;28;20180;-74
2021/08/20 05:08:44;;;;;;;10.10;8.00;;;16.40;99.90;;;;;;5077872;28;20183;-76
2021/08/20 05:11:12;;;;;;;12.43;8.43;;;16.50;99.90;;;;;;5074970;28;20180;-75
2021/08/20 05:13:40;;;;;;;9.10;7.77;;;16.50;99.90;;;;;;5077663;28;20185;-75
2021/08/20 05:16:08;;;;;;;9.73;7.30;;;16.50;99.90;;;;;;5078030;28;20185;-76
2021/08/20 05:18:37;;;;;;;9.70;7.93;;;16.50;99.90;;;;;;5079999;28;20189;-76
2021/08/20 05:21:05;;;;;;;9.67;7.50;;;16.50;99.90;;;;;;5076264;28;20205;-73
2021/08/20 05:23:35;;;;;;;7.50;6.90;;;16.50;99.90;;;;;;5078632;28;20177;-76
2021/08/20 05:26:03;;;;;;;8.37;7.10;;;16.60;99.90;;;;;;5072899;28;20185;-76
2021/08/20 05:28:31;;;;;;;8.83;6.63;;;16.60;99.90;;;;;;5073597;28;20184;-76
2021/08/20 05:31:00;;;;;;;11.27;7.10;;;16.60;99.90;;;;;;5080839;28;20217;-75
2021/08/20 05:33:28;;;;;;;10.63;6.90;;;16.60;99.90;;;;;;5077707;28;20495;-76
2021/08/20 05:35:56;;;;;;;7.47;6.73;;;16.60;99.90;;;;;;5080111;28;20370;-76
2021/08/20 05:38:24;;;;;;;7.13;6.33;;;16.60;99.90;;;;;;5083355;28;20181;-77
2021/08/20 05:40:54;;;;;;;6.90;6.20;;;16.60;99.90;;;;;;5075384;28;20240;-76
2021/08/20 05:43:22;;;;;;;6.77;6.17;;;16.60;99.90;;;;;;5075253;28;20181;-76
2021/08/20 05:45:51;;;;;;;7.10;6.10;;;16.70;99.90;;;;;;5080500;28;20372;-76
2021/08/20 05:48:19;;;;;;;7.17;6.40;;;16.70;99.90;;;;;;5076128;28;20310;-75
2021/08/20 05:50:47;;;;;;;7.27;6.53;;;16.70;99.90;;;;;;5076565;28;20181;-76
2021/08/20 05:53:16;;;;;;;7.13;6.43;;;16.70;99.90;;;;;;5075877;28;21135;-76
2021/08/20 05:55:44;;;;;;;7.50;6.80;;;16.70;99.90;;;;;;5076696;28;20497;-77
2021/08/20 05:58:13;;;;;;;7.37;6.67;;;16.80;99.90;;;;;;5076621;28;20235;-76
2021/08/20 06:00:42;;;;;;;7.73;6.70;;;16.80;99.90;;;;;;5073853;28;20359;-75
2021/08/20 06:03:18;;;;;;;8.70;6.80;;;16.80;99.90;;;;;;5073722;28;20197;-76
2021/08/20 06:05:47;;;;;;;7.23;6.53;;;16.80;99.90;;;;;;5078222;28;20200;-76
2021/08/20 06:08:15;;;;;;;7.20;6.50;;;16.80;99.90;;;;;;5074480;28;20378;-75
2021/08/20 06:10:47;;;;;;;8.90;6.97;;;16.80;99.90;;;;;;5076570;28;20180;-76
2021/08/20 06:13:16;;;;;;;6.80;6.20;;;16.80;99.90;;;;;;5078130;28;20401;-76
2021/08/20 06:15:45;;;;;;;7.30;6.70;;;16.80;99.90;;;;;;5074368;28;20279;-76
2021/08/20 06:18:13;;;;;;;7.93;7.07;;;16.80;99.90;;;;;;5073728;28;20185;-73
2021/08/20 06:20:41;;;;;;;7.20;6.67;;;16.90;99.90;;;;;;5076172;28;20514;-75
2021/08/20 06:23:09;;;;;;;8.00;7.20;;;17.00;99.90;;;;;;5078784;28;20192;-76
2021/08/20 06:25:38;;;;;;;7.50;6.63;;;17.00;99.90;;;;;;5076482;28;20195;-75
2021/08/20 06:28:06;;;;;;;6.73;6.03;;;17.00;99.90;;;;;;5079317;28;20202;-76
2021/08/20 06:30:36;;;;;;;7.27;6.67;;;17.00;99.90;;;;;;5081328;28;20198;-75
2021/08/20 06:33:04;;;;;;;6.90;6.27;;;17.00;99.90;;;;;;5080479;28;20183;-76
2021/08/20 06:35:32;;;;;;;6.90;6.17;;;17.00;99.90;;;;;;5079845;28;21331;-76
2021/08/20 06:38:00;;;;;;;9.63;7.17;;;17.10;99.90;;;;;;5079135;28;20176;-76
2021/08/20 06:40:29;;;;;;;6.97;6.33;;;17.10;99.90;;;;;;5079602;28;20187;-75
2021/08/20 06:42:57;;;;;;;7.27;6.57;;;17.10;99.90;;;;;;5078936;28;20466;-74
2021/08/20 06:45:25;;;;;;;13.07;6.40;;;17.20;99.90;;;;;;5078360;28;20296;-75
2021/08/20 06:47:55;;;;;;;8.10;6.73;;;17.20;99.90;;;;;;5079776;28;20194;-75
2021/08/20 06:50:23;;;;;;;7.43;6.60;;;17.30;99.90;;;;;;5079773;28;20187;-75
2021/08/20 06:52:52;;;;;;;6.90;6.07;;;17.30;99.90;;;;;;5077551;28;20190;-76
2021/08/20 06:55:22;;;;;;;6.60;5.97;;;17.40;99.90;;;;;;5078090;28;20180;-73
2021/08/20 06:57:50;;;;;;;7.90;6.40;;;17.50;99.90;;;;;;5077259;28;20180;-75
2021/08/20 07:00:19;;;;;;;6.63;6.13;;;17.50;99.90;;;;;;5078486;28;20232;-75
2021/08/20 07:02:48;;;;;;;7.23;6.57;;;17.60;99.90;;;;;;5077788;28;20196;-75
2021/08/20 07:05:18;;;;;;;7.10;6.50;;;17.60;99.90;;;;;;5078770;28;20212;-75
2021/08/20 07:07:47;;;;;;;6.93;6.23;;;17.60;99.90;;;;;;5074627;28;20249;-72
2021/08/20 07:10:17;;;;;;;7.47;6.77;;;17.60;99.90;;;;;;5080471;28;20822;-75
2021/08/20 07:12:45;;;;;;;6.57;6.03;;;17.70;99.90;;;;;;5076926;28;20226;-74
2021/08/20 07:15:14;;;;;;;7.10;6.40;;;17.70;99.90;;;;;;5077458;28;20180;-75
2021/08/20 07:17:43;;;;;;;6.83;6.17;;;17.80;99.90;;;;;;5079903;28;20179;-75
2021/08/20 07:20:12;;;;;;;8.83;6.30;;;17.90;99.90;;;;;;5078999;28;21999;-75
2021/08/20 07:22:46;;;;;;;7.50;6.80;;;17.90;99.90;;;;;;5076766;28;20244;-75
2021/08/20 07:25:15;;;;;;;6.77;6.27;;;18.00;99.90;;;;;;5082118;28;20198;-75
2021/08/20 07:27:43;;;;;;;9.03;6.50;;;18.00;99.90;;;;;;5074463;28;20186;-69
2021/08/20 07:30:13;;;;;;;7.23;6.33;;;18.00;99.90;;;;;;5071340;28;20188;-75
2021/08/20 07:32:41;;;;;;;7.60;6.90;;;17.90;99.90;;;;;;5080562;28;20226;-75
2021/08/20 07:35:09;;;;;;;8.00;6.53;;;18.00;99.90;;;;;;5079637;28;20186;-75
2021/08/20 07:37:38;;;;;;;11.37;7.50;;;18.00;99.90;;;;;;5074814;28;20211;-72
2021/08/20 07:40:09;;;;;;;9.90;7.97;;;18.00;99.90;;;;;;5078916;28;20222;-75
2021/08/20 07:42:37;;;;;;;9.80;7.10;;;18.00;99.90;;;;;;5077034;28;20208;-74
2021/08/20 07:45:06;;;;;;;9.20;7.57;;;18.10;99.90;;;;;;5076241;28;20678;-74
2021/08/20 07:47:44;;;;;;;10.67;7.90;;;18.00;99.90;;;;;;5075923;28;20184;-74
2021/08/20 07:50:13;;;;;;;7.47;6.83;;;18.00;99.90;;;;;;5079317;28;20198;-75
2021/08/20 07:52:41;;;;;;;7.43;6.70;;;17.90;99.90;;;;;;5075672;28;20251;-74
2021/08/20 07:55:12;;;;;;;7.03;6.43;;;18.00;99.90;;;;;;5074660;28;20187;-73
2021/08/20 07:57:48;;;;;;;7.30;6.70;;;18.00;99.90;;;;;;5076406;28;20196;-74
2021/08/20 08:00:20;;;;;;;6.83;6.33;;;18.20;99.90;;;;;;5076411;28;20176;-74
2021/08/20 08:02:48;;;;;;;6.30;5.70;;;18.30;99.90;;;;;;5076520;28;20284;-74
2021/08/20 08:05:18;;;;;;;8.63;6.70;;;18.40;99.90;;;;;;5075968;28;20188;-75
2021/08/20 08:07:46;;;;;;;6.23;5.70;;;18.50;99.90;;;;;;5073571;28;20168;-73
2021/08/20 08:10:17;;;;;;;6.10;5.50;;;18.60;99.90;;;;;;5077967;28;20229;-75
2021/08/20 08:12:45;;;;;;;5.60;5.30;;;18.50;99.90;;;;;;5076574;28;20172;-74
2021/08/20 08:15:13;;;;;;;6.33;5.73;;;18.60;99.90;;;;;;5073909;28;20350;-74
2021/08/20 08:17:42;;;;;;;7.03;5.20;;;18.60;99.90;;;;;;5077739;28;20196;-74
2021/08/20 08:20:12;;;;;;;6.03;5.50;;;18.70;99.90;;;;;;5080669;28;20189;-72
2021/08/20 08:22:41;;;;;;;7.63;5.57;;;18.70;99.90;;;;;;5080230;28;20215;-73
2021/08/20 08:25:10;;;;;;;8.47;6.03;;;18.80;99.90;;;;;;5074773;28;20188;-74
2021/08/20 08:27:54;;;;;;;5.97;5.57;;;18.80;99.90;;;;;;5078980;28;20200;-74
2021/08/20 08:30:23;;;;;;;6.13;5.43;;;18.80;99.90;;;;;;5079776;28;20183;-74
2021/08/20 08:32:51;;;;;;;5.20;4.80;;;18.90;99.90;;;;;;5040792;28;20363;-74
2021/08/20 08:35:20;;;;;;;8.50;5.63;;;18.90;99.90;;;;;;5035821;28;20209;-73
2021/08/20 08:37:49;;;;;;;6.23;5.80;;;18.90;99.90;;;;;;5041569;28;20357;-74
2021/08/20 08:40:18;;;;;;;5.67;5.27;;;18.90;99.90;;;;;;5039824;28;20424;-75
2021/08/20 08:42:49;;;;;;;5.60;5.23;;;19.00;99.90;;;;;;5042644;28;20268;-74
2021/08/20 08:45:17;;;;;;;5.70;4.63;;;19.10;99.90;;;;;;5040783;28;20448;-74
2021/08/20 08:47:46;;;;;;;6.67;4.40;;;19.10;99.90;;;;;;5042501;28;20185;-74
2021/08/20 08:50:15;;;;;;;3.97;3.67;;;19.30;99.90;;;;;;5038336;28;20451;-74
2021/08/20 08:52:43;;;;;;;4.93;3.97;;;19.40;99.90;;;;;;5056945;28;20220;-75
2021/08/20 08:55:12;;;;;;;4.17;3.70;;;19.60;99.90;;;;;;5041996;28;20449;-74
2021/08/20 08:57:40;;;;;;;3.70;3.40;;;19.70;99.90;;;;;;5042278;28;20401;-74
2021/08/20 09:00:11;;;;;;;3.90;3.60;;;19.80;99.90;;;;;;5038261;28;20173;-73
2021/08/20 09:02:40;;;;;;;3.77;3.10;;;19.80;99.90;;;;;;5042850;28;20197;-75
2021/08/20 09:05:11;;;;;;;4.13;3.30;;;20.00;99.90;;;;;;5047828;28;20397;-75
2021/08/20 09:07:40;;;;;;;6.67;3.00;;;20.20;99.90;;;;;;5042445;28;20344;-74
2021/08/20 09:10:16;;;;;;;3.03;2.73;;;20.50;99.90;;;;;;5035452;28;20228;-75
2021/08/20 09:12:53;;;;;;;3.47;2.70;;;20.70;99.90;;;;;;5044335;28;20177;-73
2021/08/20 09:15:26;;;;;;;3.30;2.70;;;20.70;99.90;;;;;;5042459;28;20356;-75
2021/08/20 09:17:57;;;;;;;3.33;2.70;;;20.70;99.90;;;;;;5045292;28;20361;-75
2021/08/20 09:20:26;;;;;;;3.60;2.90;;;20.70;99.90;;;;;;5055009;28;20343;-75
2021/08/20 09:22:57;;;;;;;3.57;2.60;;;20.60;99.90;;;;;;5048077;28;20205;-73
2021/08/20 09:25:30;;;;;;;3.03;2.40;;;20.50;99.90;;;;;;5034625;28;20403;-75
2021/08/20 09:28:20;;;;;;;2.27;2.17;;;20.30;99.90;;;;;;5042621;28;20290;-75
2021/08/20 09:31:05;;;;;;;2.90;2.70;;;20.40;99.90;;;;;;5040761;28;20223;-73
2021/08/20 09:33:35;;;;;;;2.97;2.77;;;20.80;99.90;;;;;;5087839;28;20180;-75
2021/08/20 09:36:06;;;;;;;2.30;2.20;;;21.20;99.90;;;;;;5090697;28;20493;-75
2021/08/20 09:38:37;;;;;;;2.47;2.30;;;21.50;99.90;;;;;;5084849;28;20176;-75
2021/08/20 09:41:08;;;;;;;3.33;2.20;;;22.00;99.90;;;;;;5088661;28;20183;-75
2021/08/20 09:43:38;;;;;;;3.27;2.40;;;22.20;99.90;;;;;;5084021;28;20197;-74
2021/08/20 09:46:10;;;;;;;2.97;2.67;;;22.40;99.90;;;;;;5081872;28;20709;-75
2021/08/20 09:48:46;;;;;;;2.27;2.17;;;22.20;99.90;;;;;;5078357;28;20390;-75
2021/08/20 09:51:35;;;;;;;2.17;2.07;;;22.10;99.90;;;;;;5081898;28;20184;-75
2021/08/20 09:54:05;;;;;;;2.23;2.13;;;22.20;99.90;;;;;;5084060;28;20204;-75
2021/08/20 09:56:54;;;;;;;2.20;2.10;;;22.40;99.90;;;;;;5099019;28;20340;-75
2021/08/20 09:59:27;;;;;;;2.93;2.20;;;22.20;99.90;;;;;;5086248;28;20230;-74
2021/08/20 10:01:59;;;;;;;2.33;2.13;;;22.40;99.90;;;;;;5087378;28;20200;-74
2021/08/20 10:04:29;;;;;;;2.73;2.50;;;22.40;99.90;;;;;;5087168;28;20188;-74
2021/08/20 10:07:00;;;;;;;2.10;2.00;;;22.50;99.90;;;;;;5094520;28;20177;-74
2021/08/20 10:09:30;;;;;;;1.70;1.60;;;22.30;99.90;;;;;;5085902;28;20322;-75
2021/08/20 10:12:00;;;;;;;2.37;1.90;;;22.10;99.90;;;;;;5088843;28;20184;-75
2021/08/20 10:14:31;;;;;;;5.43;1.70;;;21.80;99.90;;;;;;5088050;28;20183;-75
2021/08/20 10:17:02;;;;;;;2.20;1.97;;;21.70;99.90;;;;;;5080543;28;20399;-75
2021/08/20 10:19:31;;;;;;;1.83;1.73;;;21.80;99.90;;;;;;5077629;28;20307;-74
2021/08/20 10:22:00;;;;;;;2.23;2.10;;;22.00;99.90;;;;;;5078594;28;20238;-75
2021/08/20 10:24:28;;;;;;;1.67;1.57;;;22.30;99.90;;;;;;5079773;28;20222;-74
2021/08/20 10:26:57;;;;;;;1.73;1.60;;;22.30;99.90;;;;;;5083781;28;20199;-75
2021/08/20 10:29:27;;;;;;;2.30;1.70;;;22.50;99.90;;;;;;5083254;28;20188;-74
2021/08/20 10:31:57;;;;;;;1.80;1.70;;;22.40;99.90;;;;;;5078123;28;20216;-72
2021/08/20 10:34:39;;;;;;;1.70;1.60;;;22.40;99.90;;;;;;5081120;28;20217;-75
2021/08/20 10:37:11;;;;;;;2.07;1.93;;;22.30;99.90;;;;;;5081170;28;20196;-74
2021/08/20 10:39:41;;;;;;;2.43;2.03;;;22.30;99.90;;;;;;5076926;28;20226;-74
2021/08/20 10:42:12;;;;;;;1.70;1.60;;;22.20;99.90;;;;;;5082951;28;20184;-74
2021/08/20 10:44:42;;;;;;;4.43;1.70;;;21.90;99.90;;;;;;5082562;28;20203;-74
2021/08/20 10:47:23;;;;;;;2.03;1.83;;;21.80;99.90;;;;;;5083855;28;20304;-74
2021/08/20 10:50:07;;;;;;;3.53;1.60;;;21.80;99.90;;;;;;5079435;28;20237;-74
2021/08/20 10:52:38;;;;;;;1.97;1.87;;;21.70;99.90;;;;;;5084174;28;20189;-72
2021/08/20 10:55:21;;;;;;;1.73;1.63;;;21.90;99.90;;;;;;5083561;28;20196;-74
2021/08/20 10:58:13;;;;;;;2.40;1.90;;;22.10;99.90;;;;;;5082215;28;20297;-74
2021/08/20 11:00:55;;;;;;;1.80;1.60;;;22.20;99.90;;;;;;5082601;28;20191;-74
2021/08/20 11:03:43;;;;;;;2.10;1.90;;;22.10;99.90;;;;;;5086113;28;20212;-71
2021/08/20 11:06:49;;;;;;;2.20;2.00;;;22.00;99.90;;;;;;5099049;28;20375;-75
2021/08/20 11:09:31;;;;;;;3.30;2.17;;;21.90;99.90;;;;;;5077409;28;20217;-74
2021/08/20 11:12:00;;;;;;;2.30;1.73;;;21.90;99.90;;;;;;5081943;28;20181;-74
2021/08/20 11:14:36;;;;;;;2.87;1.90;;;21.90;99.90;;;;;;5077396;28;20215;-74
2021/08/20 11:17:07;;;;;;;2.00;1.80;;;22.50;99.90;;;;;;5079309;28;20216;-72
2021/08/20 11:19:55;;;;;;;1.60;1.60;;;23.50;99.90;;;;;;5092951;28;20202;-75
2021/08/20 11:22:30;;;;;;;2.73;1.80;;;24.00;99.90;;;;;;5082972;28;20403;-75
2021/08/20 11:25:13;;;;;;;3.80;2.20;;;24.10;99.90;;;;;;5078349;28;20439;-73
2021/08/20 11:27:41;;;;;;;3.57;1.73;;;24.00;99.90;;;;;;5078598;28;20180;-75
2021/08/20 11:30:10;;;;;;;1.80;1.67;;;24.00;99.90;;;;;;5080575;28;20192;-73
2021/08/20 11:32:42;;;;;;;3.17;1.60;;;23.80;99.90;;;;;;5080528;28;20226;-74
2021/08/20 11:35:10;;;;;;;1.70;1.60;;;23.50;99.90;;;;;;5081949;28;20183;-74
2021/08/20 11:37:53;;;;;;;2.00;1.50;;;23.50;99.90;;;;;;5082062;28;20190;-75
2021/08/20 11:40:25;;;;;;;2.00;1.63;;;23.30;99.90;;;;;;5082743;28;20240;-74
2021/08/20 11:43:07;;;;;;;1.70;1.60;;;23.10;99.90;;;;;;5082600;28;20182;-75
2021/08/20 11:45:35;;;;;;;1.70;1.60;;;22.90;99.90;;;;;;5078496;28;21791;-74
2021/08/20 11:48:05;;;;;;;3.60;2.20;;;22.70;99.90;;;;;;5080561;28;20197;-74
2021/08/20 11:50:35;;;;;;;3.43;1.80;;;22.60;99.90;;;;;;5078962;28;20218;-74
2021/08/20 11:53:05;;;;;;;5.30;2.00;;;22.60;99.90;;;;;;5081192;28;20230;-74
2021/08/20 11:55:33;;;;;;;2.60;1.80;;;22.50;99.90;;;;;;5087889;28;20186;-75
2021/08/20 11:58:29;;;;;;;2.80;1.87;;;22.40;99.90;;;;;;5081445;28;20173;-74
2021/08/20 12:01:00;;;;;;;1.50;1.50;;;22.40;99.90;;;;;;5082670;28;20230;-74
2021/08/20 12:03:29;;;;;;;1.70;1.60;;;22.40;99.90;;;;;;5088727;28;20392;-73
2021/08/20 12:06:07;;;;;;;3.60;1.93;;;22.30;99.90;;;;;;5073811;28;20199;-73
2021/08/20 12:08:38;;;;;;;3.03;1.80;;;22.30;99.90;;;;;;5081301;28;20177;-75
2021/08/20 12:11:08;;;;;;;4.40;1.87;;;22.40;99.90;;;;;;5080044;28;20415;-74
2021/08/20 12:13:44;;;;;;;2.50;2.03;;;22.40;99.90;;;;;;5073751;28;20187;-75
2021/08/20 12:16:30;;;;;;;2.40;1.80;;;22.40;99.90;;;;;;5074893;28;20197;-76
2021/08/20 12:18:58;;;;;;;1.90;1.60;;;22.30;99.90;;;;;;5078400;28;20174;-73
2021/08/20 12:21:33;;;;;;;4.83;1.90;;;22.30;99.90;;;;;;5076737;28;20201;-75
2021/08/20 12:24:05;;;;;;;2.33;1.80;;;22.20;99.90;;;;;;5078981;28;20197;-75
2021/08/20 12:26:34;;;;;;;2.67;1.83;;;22.20;99.90;;;;;;5077405;28;20187;-75
2021/08/20 12:29:13;;;;;;;2.23;1.80;;;22.30;99.90;;;;;;5075045;28;20350;-74
2021/08/20 12:31:55;;;;;;;1.97;1.83;;;22.40;99.90;;;;;;5072759;28;20217;-75
2021/08/20 12:34:29;;;;;;;2.20;2.00;;;22.40;99.90;;;;;;5076802;28;20181;-75
2021/08/20 12:36:59;;;;;;;1.80;1.67;;;22.40;99.90;;;;;;5075050;28;20306;-76
2021/08/20 12:39:37;;;;;;;3.63;2.17;;;22.50;99.90;;;;;;5079655;28;20255;-75
2021/08/20 12:42:23;;;;;;;3.13;1.70;;;22.60;99.90;;;;;;5078286;28;20188;-75
2021/08/20 12:45:14;;;;;;;2.77;1.83;;;22.70;99.90;;;;;;5074537;28;20205;-75
2021/08/20 12:47:44;;;;;;;1.87;1.70;;;22.80;99.90;;;;;;5088021;28;20235;-74
2021/08/20 12:50:14;;;;;;;1.73;1.73;;;22.90;99.90;;;;;;5076973;28;20202;-75
2021/08/20 12:52:43;;;;;;;2.20;2.00;;;23.10;99.90;;;;;;5076013;28;20181;-73
2021/08/20 12:55:33;;;;;;;4.83;1.77;;;23.20;99.90;;;;;;5076742;28;20176;-76
2021/08/20 12:58:03;;;;;;;1.60;1.60;;;23.20;99.90;;;;;;5077517;28;20412;-75
2021/08/20 13:00:34;;;;;;;2.10;1.87;;;23.20;99.90;;;;;;5076677;28;20189;-76
2021/08/20 13:03:07;;;;;;;1.90;1.80;;;23.30;99.90;;;;;;5082460;28;20423;-76